Time;durP1;ratioP1;P1;durP2;ratioP2;P2;SDS_P1;SDS_P2;PMS_P1;PMS_P2;Temp;Humidity;BMP_temperature;BMP_pressure;BME280_temperature;BME280_humidity;BME280_pressure;Samples;Min_cycle;Max_cycle;Signal;HPM_P1;HPM_P2
2022/06/09 00:40:15;;;;;;;0.60;0.50;;;;;;;;;;4935650;29;20236;-87
2022/06/09 00:42:43;;;;;;;1.17;0.63;;;;;;;;;;4935881;29;20225;-88
2022/06/09 00:45:23;;;;;;;0.52;0.50;;;;;;;;;;4930101;29;20237;-88
2022/06/09 00:47:51;;;;;;;0.60;0.60;;;;;;;;;;4934365;29;20592;-88
2022/06/09 00:50:21;;;;;;;0.82;0.70;;;;;;;;;;4924943;29;20201;-88
2022/06/09 00:52:51;;;;;;;0.50;0.50;;;;;;;;;;4936686;29;20224;-88
2022/06/09 00:55:24;;;;;;;0.60;0.60;;;;;;;;;;4912112;29;20690;-88
2022/06/09 00:57:53;;;;;;;0.55;0.55;;;;;;;;;;4921586;29;20249;-89
2022/06/09 01:00:25;;;;;;;0.77;0.73;;;;;;;;;;4919185;29;20206;-88
2022/06/09 01:02:54;;;;;;;1.13;0.60;;;;;;;;;;4925906;29;20217;-88
2022/06/09 01:05:22;;;;;;;0.60;0.60;;;;;;;;;;4925049;29;20308;-88
2022/06/09 01:07:51;;;;;;;0.50;0.50;;;;;;;;;;4922271;29;20253;-88
2022/06/09 01:10:20;;;;;;;0.80;0.50;;;;;;;;;;4929531;29;20241;-88
2022/06/09 01:12:50;;;;;;;0.75;0.40;;;;;;;;;;4919104;29;20206;-88
2022/06/09 01:15:18;;;;;;;0.73;0.60;;;;;;;;;;4929941;29;20225;-88
2022/06/09 01:17:53;;;;;;;1.40;0.70;;;;;;;;;;4923361;29;20312;-88
2022/06/09 01:20:30;;;;;;;0.65;0.60;;;;;;;;;;4921343;29;20204;-88
2022/06/09 01:23:21;;;;;;;1.08;0.68;;;;;;;;;;4932211;29;20217;-88
2022/06/09 01:26:07;;;;;;;0.82;0.60;;;;;;;;;;4912842;29;20244;-88
2022/06/09 01:28:55;;;;;;;0.70;0.57;;;;;;;;;;4920813;29;20674;-86
2022/06/09 01:31:27;;;;;;;0.65;0.57;;;;;;;;;;4893560;29;20399;-88
2022/06/09 01:33:57;;;;;;;0.82;0.50;;;;;;;;;;4924540;29;20258;-88
2022/06/09 01:36:27;;;;;;;0.75;0.60;;;;;;;;;;4917456;29;20257;-88
2022/06/09 01:38:56;;;;;;;1.75;0.63;;;;;;;;;;4918061;29;20264;-88
2022/06/09 01:41:24;;;;;;;1.17;0.60;;;;;;;;;;4933321;29;20206;-88
2022/06/09 01:43:53;;;;;;;1.13;0.60;;;;;;;;;;4917343;29;20214;-88
2022/06/09 01:46:22;;;;;;;0.43;0.43;;;;;;;;;;4926954;29;20206;-88
2022/06/09 01:48:52;;;;;;;0.52;0.50;;;;;;;;;;4917414;29;20245;-88
2022/06/09 01:51:21;;;;;;;0.57;0.45;;;;;;;;;;4917244;29;20293;-88
2022/06/09 01:53:51;;;;;;;0.80;0.60;;;;;;;;;;4917436;29;20309;-88
2022/06/09 01:56:22;;;;;;;1.85;0.73;;;;;;;;;;4924681;29;20237;-88
2022/06/09 01:58:52;;;;;;;0.93;0.65;;;;;;;;;;4933714;29;20695;-89
2022/06/09 02:01:22;;;;;;;0.70;0.68;;;;;;;;;;4926463;29;20213;-89
2022/06/09 02:03:51;;;;;;;1.17;0.60;;;;;;;;;;4919426;29;20723;-89
2022/06/09 02:06:22;;;;;;;0.70;0.45;;;;;;;;;;4922708;29;20201;-88
2022/06/09 02:08:49;;;;;;;1.15;0.60;;;;;;;;;;4924457;29;20288;-88
2022/06/09 02:11:17;;;;;;;1.42;0.60;;;;;;;;;;4930913;29;20270;-88
2022/06/09 02:13:47;;;;;;;0.95;0.70;;;;;;;;;;4930664;29;20212;-89
2022/06/09 02:16:16;;;;;;;0.77;0.50;;;;;;;;;;4926078;29;20214;-88
2022/06/09 02:18:47;;;;;;;0.43;0.43;;;;;;;;;;4933072;29;20260;-88
2022/06/09 02:21:16;;;;;;;1.35;0.82;;;;;;;;;;4918697;29;20237;-88
2022/06/09 02:23:47;;;;;;;1.10;0.65;;;;;;;;;;4921583;29;20239;-88
2022/06/09 02:26:16;;;;;;;0.88;0.50;;;;;;;;;;4922643;29;20592;-88
2022/06/09 02:28:47;;;;;;;0.82;0.73;;;;;;;;;;4921556;29;20279;-89
2022/06/09 02:31:14;;;;;;;1.05;0.65;;;;;;;;;;4927633;29;20300;-89
2022/06/09 02:33:42;;;;;;;0.55;0.55;;;;;;;;;;4923295;29;20233;-89
2022/06/09 02:36:09;;;;;;;1.13;0.60;;;;;;;;;;4916575;29;20269;-88
2022/06/09 02:38:37;;;;;;;1.58;0.73;;;;;;;;;;4928570;29;20229;-89
2022/06/09 02:41:06;;;;;;;0.88;0.60;;;;;;;;;;4934953;29;20217;-89
2022/06/09 02:43:34;;;;;;;1.52;0.60;;;;;;;;;;4917393;29;20202;-88
2022/06/09 02:46:01;;;;;;;0.50;0.50;;;;;;;;;;4921223;29;20286;-87
2022/06/09 02:48:29;;;;;;;1.30;0.60;;;;;;;;;;4917164;29;20233;-88
2022/06/09 02:50:56;;;;;;;0.70;0.70;;;;;;;;;;4923503;29;20217;-87
2022/06/09 02:53:24;;;;;;;1.17;0.60;;;;;;;;;;4934712;29;20214;-88
2022/06/09 02:55:52;;;;;;;1.30;0.60;;;;;;;;;;4915956;29;20206;-88
2022/06/09 02:58:21;;;;;;;0.95;0.60;;;;;;;;;;4925968;29;20236;-88
2022/06/09 03:00:48;;;;;;;0.80;0.70;;;;;;;;;;4929667;29;20202;-88
2022/06/09 03:03:15;;;;;;;0.73;0.60;;;;;;;;;;4931300;29;20225;-88
2022/06/09 03:05:43;;;;;;;1.38;0.75;;;;;;;;;;4922504;29;20206;-87
2022/06/09 03:08:10;;;;;;;1.25;0.80;;;;;;;;;;4920903;29;20256;-88
2022/06/09 03:10:38;;;;;;;0.70;0.70;;;;;;;;;;4921160;29;20229;-88
2022/06/09 03:13:06;;;;;;;0.70;0.70;;;;;;;;;;4922817;29;20214;-88
2022/06/09 03:15:35;;;;;;;0.75;0.63;;;;;;;;;;4916030;29;20273;-88
2022/06/09 03:18:03;;;;;;;1.02;0.80;;;;;;;;;;4919558;29;20229;-88
2022/06/09 03:20:31;;;;;;;0.85;0.80;;;;;;;;;;4921352;29;20244;-88
2022/06/09 03:22:59;;;;;;;1.42;0.70;;;;;;;;;;4934656;29;20224;-88
2022/06/09 03:25:26;;;;;;;0.63;0.63;;;;;;;;;;4934553;29;20213;-86
2022/06/09 03:27:53;;;;;;;0.68;0.68;;;;;;;;;;4923103;29;20225;-88
2022/06/09 03:30:21;;;;;;;0.55;0.55;;;;;;;;;;4916713;29;20317;-88
2022/06/09 03:32:50;;;;;;;1.83;0.98;;;;;;;;;;4922224;29;20229;-88
2022/06/09 03:35:18;;;;;;;1.08;0.98;;;;;;;;;;4920886;29;20205;-89
2022/06/09 03:37:45;;;;;;;1.35;0.80;;;;;;;;;;4925124;29;20233;-87
2022/06/09 03:40:14;;;;;;;1.00;0.70;;;;;;;;;;4927496;29;20225;-88
2022/06/09 03:42:42;;;;;;;1.17;0.80;;;;;;;;;;4934602;29;20229;-88
2022/06/09 03:45:10;;;;;;;1.58;0.90;;;;;;;;;;4920291;29;20233;-88
2022/06/09 03:47:37;;;;;;;1.52;1.00;;;;;;;;;;4934360;29;20256;-88
2022/06/09 03:50:06;;;;;;;1.90;1.00;;;;;;;;;;4927845;29;20245;-88
2022/06/09 03:52:35;;;;;;;1.65;1.00;;;;;;;;;;4918514;29;20202;-87
2022/06/09 03:55:04;;;;;;;2.05;1.08;;;;;;;;;;4920165;29;20730;-88
2022/06/09 03:57:31;;;;;;;1.55;1.13;;;;;;;;;;4924968;29;20276;-88
2022/06/09 03:59:59;;;;;;;1.63;1.05;;;;;;;;;;4940446;29;20241;-88
2022/06/09 04:02:26;;;;;;;1.50;0.98;;;;;;;;;;4931727;29;20270;-89
2022/06/09 04:04:53;;;;;;;1.20;1.00;;;;;;;;;;4925855;29;20292;-89
2022/06/09 04:07:22;;;;;;;1.77;0.98;;;;;;;;;;4918963;29;20209;-88
2022/06/09 04:09:49;;;;;;;2.58;1.00;;;;;;;;;;4918988;29;20222;-88
2022/06/09 04:12:19;;;;;;;1.33;0.90;;;;;;;;;;4931418;29;20314;-89
2022/06/09 04:14:47;;;;;;;1.10;0.88;;;;;;;;;;4916799;29;20202;-85
2022/06/09 04:17:14;;;;;;;2.63;1.00;;;;;;;;;;4923481;29;20213;-89
2022/06/09 04:19:42;;;;;;;1.38;1.00;;;;;;;;;;4921070;29;20194;-89
2022/06/09 04:22:09;;;;;;;0.90;0.73;;;;;;;;;;4918948;29;20209;-90
2022/06/09 04:24:38;;;;;;;1.25;0.90;;;;;;;;;;4920856;29;20210;-89
2022/06/09 04:27:05;;;;;;;15.93;3.50;;;;;;;;;;4919304;29;20217;-88
2022/06/09 04:29:33;;;;;;;11.02;2.60;;;;;;;;;;4917804;29;20290;-89
2022/06/09 04:32:00;;;;;;;20.63;4.70;;;;;;;;;;4916059;29;20216;-88
2022/06/09 04:34:28;;;;;;;24.55;4.90;;;;;;;;;;4920812;29;20210;-89
2022/06/09 04:36:55;;;;;;;32.03;6.95;;;;;;;;;;4921548;29;20324;-87
2022/06/09 04:39:22;;;;;;;2.15;1.15;;;;;;;;;;4919183;29;20241;-88
2022/06/09 04:41:51;;;;;;;4.55;1.30;;;;;;;;;;4922012;29;20264;-88
2022/06/09 04:44:18;;;;;;;8.10;2.60;;;;;;;;;;4930571;29;20216;-89
2022/06/09 04:49:59;;;;;;;15.15;3.60;;;;;;;;;;5374735;23;20233;-88
2022/06/09 04:52:31;;;;;;;43.67;8.90;;;;;;;;;;4920347;29;20245;-89
2022/06/09 04:54:59;;;;;;;48.90;10.52;;;;;;;;;;4923581;29;20262;-90
2022/06/09 04:57:28;;;;;;;6.90;2.20;;;;;;;;;;4926635;29;20297;-90
2022/06/09 04:59:55;;;;;;;12.98;3.38;;;;;;;;;;4923316;29;20230;-88
2022/06/09 05:02:23;;;;;;;13.38;3.28;;;;;;;;;;4923761;29;20234;-88
2022/06/09 05:04:51;;;;;;;12.60;2.75;;;;;;;;;;4919328;29;20206;-88
2022/06/09 05:07:20;;;;;;;10.45;2.83;;;;;;;;;;4915235;29;20631;-89
2022/06/09 05:09:52;;;;;;;11.90;2.97;;;;;;;;;;4917968;29;20233;-91
2022/06/09 05:12:19;;;;;;;13.35;2.35;;;;;;;;;;4909616;29;20210;-90
2022/06/09 05:14:48;;;;;;;15.57;3.13;;;;;;;;;;4911477;29;20211;-85
2022/06/09 05:17:15;;;;;;;16.10;2.47;;;;;;;;;;4909900;29;20254;-88
2022/06/09 05:19:43;;;;;;;9.73;2.83;;;;;;;;;;4903653;29;20649;-88
2022/06/09 05:22:15;;;;;;;6.85;2.25;;;;;;;;;;4908779;29;20213;-91
2022/06/09 05:24:42;;;;;;;13.68;3.17;;;;;;;;;;4910737;29;20205;-88
2022/06/09 05:27:11;;;;;;;14.88;2.47;;;;;;;;;;4911951;29;20233;-88
2022/06/09 05:35:36;;;;;;;11.55;3.03;;;;;;;;;;4808840;29;20224;-86
2022/06/09 05:46:26;;;;;;;12.88;2.88;;;;;;;;;;4933190;29;20735;-87
2022/06/09 05:48:54;;;;;;;7.65;2.10;;;;;;;;;;4925826;29;20236;-87
2022/06/09 05:51:33;;;;;;;6.28;2.60;;;;;;;;;;4917146;29;20229;-87
2022/06/09 05:54:03;;;;;;;8.07;2.40;;;;;;;;;;4918533;29;20213;-87
2022/06/09 05:56:34;;;;;;;8.15;2.40;;;;;;;;;;4919986;29;20210;-87
2022/06/09 05:59:02;;;;;;;5.97;1.98;;;;;;;;;;4916811;29;20254;-86
2022/06/09 06:01:30;;;;;;;5.20;1.83;;;;;;;;;;4918058;29;20273;-87
2022/06/09 06:04:33;;;;;;;8.55;1.92;;;;;;;;;;4917137;29;20206;-87
2022/06/09 06:07:02;;;;;;;11.43;2.40;;;;;;;;;;4915489;29;20237;-86
2022/06/09 06:09:33;;;;;;;6.85;2.90;;;;;;;;;;4917511;29;20241;-87
2022/06/09 06:12:12;;;;;;;7.55;2.30;;;;;;;;;;4916985;29;20283;-87
2022/06/09 06:14:42;;;;;;;6.25;2.25;;;;;;;;;;4916796;29;20206;-88
2022/06/09 06:17:11;;;;;;;7.78;2.22;;;;;;;;;;4910165;29;20217;-87
2022/06/09 06:19:41;;;;;;;5.57;2.08;;;;;;;;;;4921019;29;20224;-87
2022/06/09 06:22:17;;;;;;;8.40;2.30;;;;;;;;;;4912370;29;20206;-87
2022/06/09 06:25:10;;;;;;;8.50;2.33;;;;;;;;;;4919399;29;20208;-88
2022/06/09 06:28:05;;;;;;;5.80;2.13;;;;;;;;;;4916291;29;20233;-87
2022/06/09 06:30:34;;;;;;;5.05;1.80;;;;;;;;;;4912083;29;20221;-87
2022/06/09 06:33:14;;;;;;;;;;;;;;;;;;;;;
2022/06/09 06:35:51;;;;;;;7.88;2.10;;;;;;;;;;4916480;29;20206;-88
2022/06/09 06:57:46;;;;;;;3.00;1.75;;;;;;;;;;4901915;29;20711;-88
2022/06/09 07:03:37;;;;;;;4.97;1.88;;;;;;;;;;4871693;29;20290;-88
2022/06/09 07:15:54;;;;;;;3.63;1.73;;;;;;;;;;4819166;29;20201;-89
2022/06/09 07:21:38;;;;;;;6.13;1.85;;;;;;;;;;4862664;29;20238;-89
2022/06/09 07:30:33;;;;;;;4.43;1.70;;;;;;;;;;4835102;29;20269;-86
2022/06/09 07:52:02;;;;;;;3.28;1.60;;;;;;;;;;4922101;29;20237;-89
2022/06/09 08:26:39;;;;;;;3.42;1.40;;;;;;;;;;4943788;28;20792;-86
2022/06/09 08:29:41;;;;;;;2.75;1.48;;;;;;;;;;4947661;28;20263;-90
2022/06/09 08:38:48;;;;;;;;;;;;;;;;;;;;;
2022/06/09 08:44:48;;;;;;;2.13;1.30;;;;;;;;;;4858612;29;20246;-89
2022/06/09 15:37:36;;;;;;;2.55;1.88;;;;;;;;;;6281940;22;20268;-92
2022/06/09 15:43:03;;;;;;;3.13;1.73;;;;;;;;;;6298973;22;20202;-91
2022/06/09 15:45:36;;;;;;;2.45;1.80;;;;;;;;;;6307295;22;20174;-91
2022/06/09 15:54:10;;;;;;;2.55;1.88;;;;;;;;;;6297667;22;20178;-92
2022/06/09 15:56:56;;;;;;;1.70;1.60;;;;;;;;;;6308035;22;20273;-91
2022/06/09 15:59:40;;;;;;;3.42;1.80;;;;;;;;;;6307138;22;20191;-92
2022/06/09 16:14:21;;;;;;;1.85;1.60;;;;;;;;;;6200717;23;20184;-90
2022/06/09 16:29:21;;;;;;;2.85;1.50;;;;;;;;;;6035892;23;20658;-92
2022/06/09 16:32:10;;;;;;;3.42;1.88;;;;;;;;;;6036189;23;20176;-92
2022/06/09 16:35:03;;;;;;;1.77;1.40;;;;;;;;;;6033028;23;20188;-91
2022/06/09 16:43:38;;;;;;;1.48;1.38;;;;;;;;;;6212718;23;20165;-87
2022/06/09 16:46:30;;;;;;;1.55;1.45;;;;;;;;;;6211574;23;20176;-91
2022/06/09 16:52:25;;;;;;;1.33;1.20;;;;;;;;;;6152196;23;20170;-93
2022/06/09 17:03:45;;;;;;;1.88;1.50;;;;;;;;;;6203872;23;20216;-92
2022/06/09 18:42:40;;;;;;;2.45;1.45;;;;;;;;;;6172681;23;20177;-91
2022/06/09 18:45:15;;;;;;;1.98;1.30;;;;;;;;;;6101957;23;20230;-90
2022/06/09 18:51:10;;;;;;;;;;;;;;;;;;;;;
2022/06/09 18:54:06;;;;;;;;;;;;;;;;;;;;;
2022/06/09 19:02:24;;;;;;;1.35;1.20;;;;;;;;;;6276601;22;20168;-90
2022/06/09 19:05:06;;;;;;;2.20;1.15;;;;;;;;;;6268375;22;20171;-91
2022/06/09 19:07:41;;;;;;;2.25;1.30;;;;;;;;;;6275870;22;20175;-90
2022/06/09 19:16:20;;;;;;;17.67;4.25;;;;;;;;;;6247561;22;20279;-90
2022/06/09 19:25:08;;;;;;;5.82;2.00;;;;;;;;;;6105824;23;20174;-89
2022/06/09 19:27:56;;;;;;;2.85;1.55;;;;;;;;;;6181644;23;20196;-91
2022/06/09 19:30:56;;;;;;;4.85;1.90;;;;;;;;;;6181997;23;20177;-91
2022/06/09 19:33:50;;;;;;;4.57;1.60;;;;;;;;;;6181753;23;20170;-91
2022/06/09 19:39:19;;;;;;;3.20;1.60;;;;;;;;;;6208988;23;20241;-91
2022/06/09 19:45:03;;;;;;;2.10;1.63;;;;;;;;;;6126117;23;20167;-91
2022/06/09 19:55:25;;;;;;;4.50;1.42;;;;;;;;;;6303138;22;20210;-89
2022/06/09 22:29:10;;;;;;;2.58;1.30;;;;;;;;;;6242686;23;20189;-89
2022/06/09 22:31:39;;;;;;;1.90;1.20;;;;;;;;;;6242910;23;20183;-89
2022/06/09 22:34:21;;;;;;;3.20;1.33;;;;;;;;;;6243004;23;20169;-88
2022/06/09 22:37:04;;;;;;;1.83;1.15;;;;;;;;;;6242646;23;20735;-88
2022/06/09 22:39:38;;;;;;;3.35;1.60;;;;;;;;;;6242822;23;20254;-89
2022/06/09 22:42:18;;;;;;;3.22;1.50;;;;;;;;;;6242971;23;20184;-90
2022/06/09 22:57:05;;;;;;;1.65;1.20;;;;;;;;;;5997485;23;20661;-90
2022/06/09 22:59:35;;;;;;;2.63;1.40;;;;;;;;;;6075140;23;20615;-91
2022/06/09 23:05:00;;;;;;;2.95;1.40;;;;;;;;;;6209786;23;20196;-91
2022/06/09 23:07:37;;;;;;;2.13;1.20;;;;;;;;;;6212222;23;20169;-89
2022/06/09 23:10:24;;;;;;;3.17;1.40;;;;;;;;;;6212298;23;20170;-89
2022/06/09 23:13:14;;;;;;;2.17;1.60;;;;;;;;;;6212412;23;20192;-89
2022/06/09 23:15:53;;;;;;;;;;;;;;;;;;;;;
2022/06/09 23:18:30;;;;;;;3.83;1.50;;;;;;;;;;6212484;23;20200;-89
2022/06/09 23:21:25;;;;;;;2.42;1.30;;;;;;;;;;6248076;22;20702;-90
2022/06/09 23:24:03;;;;;;;1.48;1.30;;;;;;;;;;6332515;22;20178;-89
2022/06/09 23:26:40;;;;;;;1.92;1.33;;;;;;;;;;6337861;22;20173;-90
2022/06/09 23:29:13;;;;;;;2.22;1.40;;;;;;;;;;6336670;22;20191;-89
2022/06/09 23:40:51;;;;;;;1.63;1.30;;;;;;;;;;6277841;22;20163;-88
2022/06/09 23:43:34;;;;;;;1.40;1.13;;;;;;;;;;6338178;22;20241;-89
2022/06/09 23:46:05;;;;;;;1.88;1.40;;;;;;;;;;6337441;22;20605;-89
2022/06/09 23:51:42;;;;;;;1.98;1.48;;;;;;;;;;6337768;22;20171;-89
2022/06/09 23:54:32;;;;;;;1.15;1.00;;;;;;;;;;6338330;22;20163;-89
2022/06/09 23:57:13;;;;;;;1.52;1.20;;;;;;;;;;6327598;22;20191;-89
2022/06/09 23:59:44;;;;;;;1.75;1.20;;;;;;;;;;6338078;22;20205;-89
